sensor_id;sensor_type;location;lat;lon;timestamp;P1;durP1;ratioP1;P2;durP2;ratioP2
68432;SDS011;55412;51.350;17.056;2022-07-24T00:00:17;9.60;;;4.80;;
68432;SDS011;55412;51.350;17.056;2022-07-24T00:02:43;8.30;;;5.00;;
68432;SDS011;55412;51.350;17.056;2022-07-24T00:05:09;9.60;;;5.18;;
68432;SDS011;55412;51.350;17.056;2022-07-24T00:07:35;8.00;;;4.57;;
68432;SDS011;55412;51.350;17.056;2022-07-24T00:10:04;9.18;;;4.95;;
68432;SDS011;55412;51.350;17.056;2022-07-24T00:12:32;8.05;;;4.32;;
68432;SDS011;55412;51.350;17.056;2022-07-24T00:14:58;8.43;;;4.20;;
68432;SDS011;55412;51.350;17.056;2022-07-24T00:17:24;9.43;;;4.82;;
68432;SDS011;55412;51.350;17.056;2022-07-24T00:19:50;7.50;;;4.10;;
68432;SDS011;55412;51.350;17.056;2022-07-24T00:22:16;9.85;;;4.32;;
68432;SDS011;55412;51.350;17.056;2022-07-24T00:24:42;7.63;;;4.22;;
68432;SDS011;55412;51.350;17.056;2022-07-24T00:27:08;7.43;;;4.17;;
68432;SDS011;55412;51.350;17.056;2022-07-24T00:29:34;7.40;;;4.47;;
68432;SDS011;55412;51.350;17.056;2022-07-24T00:32:00;7.55;;;4.28;;
68432;SDS011;55412;51.350;17.056;2022-07-24T00:34:26;7.97;;;4.95;;
68432;SDS011;55412;51.350;17.056;2022-07-24T00:36:52;10.40;;;4.82;;
68432;SDS011;55412;51.350;17.056;2022-07-24T00:39:18;7.67;;;4.70;;
68432;SDS011;55412;51.350;17.056;2022-07-24T00:41:44;9.50;;;4.45;;
68432;SDS011;55412;51.350;17.056;2022-07-24T00:44:15;8.80;;;4.70;;
68432;SDS011;55412;51.350;17.056;2022-07-24T00:46:42;9.57;;;4.65;;
68432;SDS011;55412;51.350;17.056;2022-07-24T00:49:11;9.27;;;4.20;;
68432;SDS011;55412;51.350;17.056;2022-07-24T00:51:41;8.03;;;4.40;;
68432;SDS011;55412;51.350;17.056;2022-07-24T00:54:09;7.97;;;4.28;;
68432;SDS011;55412;51.350;17.056;2022-07-24T00:56:38;7.22;;;4.05;;
68432;SDS011;55412;51.350;17.056;2022-07-24T00:59:09;9.75;;;4.10;;
68432;SDS011;55412;51.350;17.056;2022-07-24T01:01:36;7.35;;;4.28;;
68432;SDS011;55412;51.350;17.056;2022-07-24T01:04:02;8.93;;;4.40;;
68432;SDS011;55412;51.350;17.056;2022-07-24T01:06:29;10.77;;;4.18;;
68432;SDS011;55412;51.350;17.056;2022-07-24T01:08:55;8.18;;;4.28;;
68432;SDS011;55412;51.350;17.056;2022-07-24T01:11:21;9.52;;;4.82;;
68432;SDS011;55412;51.350;17.056;2022-07-24T01:13:48;7.78;;;4.40;;
68432;SDS011;55412;51.350;17.056;2022-07-24T01:16:16;6.80;;;4.30;;
68432;SDS011;55412;51.350;17.056;2022-07-24T01:18:43;7.93;;;4.32;;
68432;SDS011;55412;51.350;17.056;2022-07-24T01:21:09;10.75;;;5.07;;
68432;SDS011;55412;51.350;17.056;2022-07-24T01:23:36;8.15;;;5.53;;
68432;SDS011;55412;51.350;17.056;2022-07-24T01:26:02;10.32;;;5.60;;
68432;SDS011;55412;51.350;17.056;2022-07-24T01:28:32;8.63;;;5.17;;
68432;SDS011;55412;51.350;17.056;2022-07-24T01:30:58;9.50;;;5.72;;
68432;SDS011;55412;51.350;17.056;2022-07-24T01:33:24;11.93;;;5.85;;
68432;SDS011;55412;51.350;17.056;2022-07-24T01:35:50;10.30;;;5.80;;
68432;SDS011;55412;51.350;17.056;2022-07-24T01:38:17;14.50;;;6.00;;
68432;SDS011;55412;51.350;17.056;2022-07-24T01:40:43;8.63;;;5.27;;
68432;SDS011;55412;51.350;17.056;2022-07-24T01:43:10;13.65;;;5.40;;
68432;SDS011;55412;51.350;17.056;2022-07-24T01:45:36;10.48;;;5.28;;
68432;SDS011;55412;51.350;17.056;2022-07-24T01:48:02;9.05;;;5.32;;
68432;SDS011;55412;51.350;17.056;2022-07-24T01:50:29;13.70;;;5.32;;
68432;SDS011;55412;51.350;17.056;2022-07-24T01:52:56;8.90;;;5.07;;
68432;SDS011;55412;51.350;17.056;2022-07-24T01:55:22;8.13;;;4.93;;
68432;SDS011;55412;51.350;17.056;2022-07-24T01:57:49;9.10;;;5.03;;
68432;SDS011;55412;51.350;17.056;2022-07-24T02:00:15;10.52;;;5.40;;
68432;SDS011;55412;51.350;17.056;2022-07-24T02:02:43;9.30;;;5.30;;
68432;SDS011;55412;51.350;17.056;2022-07-24T02:05:10;9.10;;;4.47;;
68432;SDS011;55412;51.350;17.056;2022-07-24T02:07:41;7.95;;;4.53;;
68432;SDS011;55412;51.350;17.056;2022-07-24T02:10:09;11.50;;;5.25;;
68432;SDS011;55412;51.350;17.056;2022-07-24T02:12:37;10.13;;;4.90;;
68432;SDS011;55412;51.350;17.056;2022-07-24T02:15:04;9.30;;;4.72;;
68432;SDS011;55412;51.350;17.056;2022-07-24T02:17:31;8.53;;;4.80;;
68432;SDS011;55412;51.350;17.056;2022-07-24T02:19:57;8.15;;;4.30;;
68432;SDS011;55412;51.350;17.056;2022-07-24T02:22:23;7.97;;;4.28;;
68432;SDS011;55412;51.350;17.056;2022-07-24T02:24:49;10.00;;;5.07;;
68432;SDS011;55412;51.350;17.056;2022-07-24T02:27:15;8.90;;;5.00;;
68432;SDS011;55412;51.350;17.056;2022-07-24T02:29:41;9.53;;;4.67;;
68432;SDS011;55412;51.350;17.056;2022-07-24T02:32:08;10.43;;;5.60;;
68432;SDS011;55412;51.350;17.056;2022-07-24T02:34:34;9.70;;;5.00;;
68432;SDS011;55412;51.350;17.056;2022-07-24T02:37:00;8.40;;;5.40;;
68432;SDS011;55412;51.350;17.056;2022-07-24T02:39:26;9.73;;;5.72;;
68432;SDS011;55412;51.350;17.056;2022-07-24T02:41:52;7.97;;;5.90;;
68432;SDS011;55412;51.350;17.056;2022-07-24T02:44:18;10.65;;;5.05;;
68432;SDS011;55412;51.350;17.056;2022-07-24T02:46:44;11.10;;;5.10;;
68432;SDS011;55412;51.350;17.056;2022-07-24T02:49:10;9.77;;;5.63;;
68432;SDS011;55412;51.350;17.056;2022-07-24T02:51:36;9.40;;;5.20;;
68432;SDS011;55412;51.350;17.056;2022-07-24T02:54:02;10.87;;;5.50;;
68432;SDS011;55412;51.350;17.056;2022-07-24T02:56:29;13.05;;;5.07;;
68432;SDS011;55412;51.350;17.056;2022-07-24T02:58:55;8.70;;;5.03;;
68432;SDS011;55412;51.350;17.056;2022-07-24T03:01:21;9.30;;;5.43;;
68432;SDS011;55412;51.350;17.056;2022-07-24T03:03:47;9.93;;;5.05;;
68432;SDS011;55412;51.350;17.056;2022-07-24T03:06:13;11.70;;;5.20;;
68432;SDS011;55412;51.350;17.056;2022-07-24T03:08:39;9.23;;;4.70;;
68432;SDS011;55412;51.350;17.056;2022-07-24T03:11:05;8.88;;;4.70;;
68432;SDS011;55412;51.350;17.056;2022-07-24T03:13:31;9.32;;;5.43;;
68432;SDS011;55412;51.350;17.056;2022-07-24T03:15:57;9.38;;;4.85;;
68432;SDS011;55412;51.350;17.056;2022-07-24T03:18:23;8.97;;;4.87;;
68432;SDS011;55412;51.350;17.056;2022-07-24T03:20:49;11.27;;;5.47;;
68432;SDS011;55412;51.350;17.056;2022-07-24T03:23:15;9.95;;;5.30;;
68432;SDS011;55412;51.350;17.056;2022-07-24T03:25:41;11.35;;;5.25;;
68432;SDS011;55412;51.350;17.056;2022-07-24T03:28:07;8.48;;;4.88;;
68432;SDS011;55412;51.350;17.056;2022-07-24T03:30:33;9.37;;;4.60;;
68432;SDS011;55412;51.350;17.056;2022-07-24T03:32:59;9.60;;;5.30;;
68432;SDS011;55412;51.350;17.056;2022-07-24T03:35:25;9.32;;;4.63;;
68432;SDS011;55412;51.350;17.056;2022-07-24T03:37:51;10.10;;;4.75;;
68432;SDS011;55412;51.350;17.056;2022-07-24T03:40:17;10.05;;;5.05;;
68432;SDS011;55412;51.350;17.056;2022-07-24T03:42:44;10.10;;;4.90;;
68432;SDS011;55412;51.350;17.056;2022-07-24T03:45:10;8.98;;;4.78;;
68432;SDS011;55412;51.350;17.056;2022-07-24T03:47:36;12.43;;;4.53;;
68432;SDS011;55412;51.350;17.056;2022-07-24T03:50:02;10.00;;;4.68;;
68432;SDS011;55412;51.350;17.056;2022-07-24T03:52:29;9.77;;;4.93;;
68432;SDS011;55412;51.350;17.056;2022-07-24T03:54:54;10.07;;;4.93;;
68432;SDS011;55412;51.350;17.056;2022-07-24T03:57:21;7.72;;;4.65;;
68432;SDS011;55412;51.350;17.056;2022-07-24T03:59:47;12.13;;;4.88;;
68432;SDS011;55412;51.350;17.056;2022-07-24T04:02:13;9.48;;;5.05;;
68432;SDS011;55412;51.350;17.056;2022-07-24T04:04:39;9.55;;;4.78;;
68432;SDS011;55412;51.350;17.056;2022-07-24T04:07:05;10.07;;;5.10;;
68432;SDS011;55412;51.350;17.056;2022-07-24T04:09:31;9.75;;;5.35;;
68432;SDS011;55412;51.350;17.056;2022-07-24T04:11:58;9.73;;;4.97;;
68432;SDS011;55412;51.350;17.056;2022-07-24T04:14:24;10.43;;;5.13;;
68432;SDS011;55412;51.350;17.056;2022-07-24T04:16:50;9.68;;;5.18;;
68432;SDS011;55412;51.350;17.056;2022-07-24T04:19:17;9.00;;;4.07;;
68432;SDS011;55412;51.350;17.056;2022-07-24T04:21:43;8.68;;;4.60;;
68432;SDS011;55412;51.350;17.056;2022-07-24T04:24:09;6.85;;;4.28;;
68432;SDS011;55412;51.350;17.056;2022-07-24T04:26:35;8.32;;;4.78;;
68432;SDS011;55412;51.350;17.056;2022-07-24T04:29:01;8.45;;;4.32;;
68432;SDS011;55412;51.350;17.056;2022-07-24T04:31:27;9.07;;;4.67;;
68432;SDS011;55412;51.350;17.056;2022-07-24T04:33:53;8.13;;;4.97;;
68432;SDS011;55412;51.350;17.056;2022-07-24T04:36:19;7.82;;;4.38;;
68432;SDS011;55412;51.350;17.056;2022-07-24T04:38:45;9.02;;;4.78;;
68432;SDS011;55412;51.350;17.056;2022-07-24T04:41:11;7.93;;;4.63;;
68432;SDS011;55412;51.350;17.056;2022-07-24T04:43:37;8.23;;;4.80;;
68432;SDS011;55412;51.350;17.056;2022-07-24T04:46:03;10.18;;;4.45;;
68432;SDS011;55412;51.350;17.056;2022-07-24T04:48:30;7.78;;;4.88;;
68432;SDS011;55412;51.350;17.056;2022-07-24T04:50:57;7.85;;;4.80;;
68432;SDS011;55412;51.350;17.056;2022-07-24T04:53:23;9.63;;;4.80;;
68432;SDS011;55412;51.350;17.056;2022-07-24T04:55:49;8.17;;;4.80;;
68432;SDS011;55412;51.350;17.056;2022-07-24T04:58:15;7.25;;;4.63;;
68432;SDS011;55412;51.350;17.056;2022-07-24T05:00:41;6.82;;;4.22;;
68432;SDS011;55412;51.350;17.056;2022-07-24T05:03:07;11.18;;;5.13;;
68432;SDS011;55412;51.350;17.056;2022-07-24T05:05:33;11.25;;;4.57;;
68432;SDS011;55412;51.350;17.056;2022-07-24T05:07:59;9.43;;;5.03;;
68432;SDS011;55412;51.350;17.056;2022-07-24T05:10:25;9.25;;;4.60;;
68432;SDS011;55412;51.350;17.056;2022-07-24T05:12:51;8.13;;;4.45;;
68432;SDS011;55412;51.350;17.056;2022-07-24T05:15:17;7.95;;;4.55;;
68432;SDS011;55412;51.350;17.056;2022-07-24T05:17:43;8.32;;;4.45;;
68432;SDS011;55412;51.350;17.056;2022-07-24T05:20:09;7.67;;;4.33;;
68432;SDS011;55412;51.350;17.056;2022-07-24T05:22:36;9.25;;;4.50;;
68432;SDS011;55412;51.350;17.056;2022-07-24T05:25:02;7.38;;;3.90;;
68432;SDS011;55412;51.350;17.056;2022-07-24T05:27:28;9.82;;;4.55;;
68432;SDS011;55412;51.350;17.056;2022-07-24T05:29:54;8.82;;;4.00;;
68432;SDS011;55412;51.350;17.056;2022-07-24T05:32:20;5.93;;;3.50;;
68432;SDS011;55412;51.350;17.056;2022-07-24T05:34:46;6.60;;;4.65;;
68432;SDS011;55412;51.350;17.056;2022-07-24T05:37:12;6.43;;;4.68;;
68432;SDS011;55412;51.350;17.056;2022-07-24T05:39:38;7.70;;;3.78;;
68432;SDS011;55412;51.350;17.056;2022-07-24T05:42:05;11.05;;;4.78;;
68432;SDS011;55412;51.350;17.056;2022-07-24T05:44:31;7.53;;;4.60;;
68432;SDS011;55412;51.350;17.056;2022-07-24T05:46:57;10.50;;;4.00;;
68432;SDS011;55412;51.350;17.056;2022-07-24T05:49:23;8.27;;;4.13;;
68432;SDS011;55412;51.350;17.056;2022-07-24T05:51:49;7.20;;;3.63;;
68432;SDS011;55412;51.350;17.056;2022-07-24T05:54:15;7.70;;;4.30;;
68432;SDS011;55412;51.350;17.056;2022-07-24T05:56:41;10.00;;;4.07;;
68432;SDS011;55412;51.350;17.056;2022-07-24T05:59:07;5.57;;;3.22;;
68432;SDS011;55412;51.350;17.056;2022-07-24T06:01:33;6.15;;;3.42;;
68432;SDS011;55412;51.350;17.056;2022-07-24T06:03:59;6.65;;;3.33;;
68432;SDS011;55412;51.350;17.056;2022-07-24T06:06:25;5.85;;;3.30;;
68432;SDS011;55412;51.350;17.056;2022-07-24T06:08:51;6.00;;;3.40;;
68432;SDS011;55412;51.350;17.056;2022-07-24T06:11:17;5.88;;;3.58;;
68432;SDS011;55412;51.350;17.056;2022-07-24T06:13:45;4.57;;;3.13;;
68432;SDS011;55412;51.350;17.056;2022-07-24T06:16:11;9.85;;;3.83;;
68432;SDS011;55412;51.350;17.056;2022-07-24T06:18:37;6.47;;;3.58;;
68432;SDS011;55412;51.350;17.056;2022-07-24T06:21:03;5.43;;;4.17;;
68432;SDS011;55412;51.350;17.056;2022-07-24T06:23:29;7.35;;;4.38;;
68432;SDS011;55412;51.350;17.056;2022-07-24T06:25:56;7.03;;;4.95;;
68432;SDS011;55412;51.350;17.056;2022-07-24T06:28:22;8.00;;;4.40;;
68432;SDS011;55412;51.350;17.056;2022-07-24T06:30:48;7.83;;;4.67;;
68432;SDS011;55412;51.350;17.056;2022-07-24T06:33:14;5.63;;;4.87;;
68432;SDS011;55412;51.350;17.056;2022-07-24T06:35:40;8.15;;;5.60;;
68432;SDS011;55412;51.350;17.056;2022-07-24T06:38:06;6.75;;;6.05;;
68432;SDS011;55412;51.350;17.056;2022-07-24T06:40:32;7.70;;;5.63;;
68432;SDS011;55412;51.350;17.056;2022-07-24T06:42:59;8.70;;;6.57;;
68432;SDS011;55412;51.350;17.056;2022-07-24T06:45:25;7.27;;;6.40;;
68432;SDS011;55412;51.350;17.056;2022-07-24T06:47:52;7.22;;;6.53;;
68432;SDS011;55412;51.350;17.056;2022-07-24T06:50:18;7.97;;;7.10;;
68432;SDS011;55412;51.350;17.056;2022-07-24T06:52:44;8.05;;;7.45;;
68432;SDS011;55412;51.350;17.056;2022-07-24T06:55:10;9.35;;;8.55;;
68432;SDS011;55412;51.350;17.056;2022-07-24T06:57:36;7.80;;;7.10;;
68432;SDS011;55412;51.350;17.056;2022-07-24T07:00:04;9.25;;;8.45;;
68432;SDS011;55412;51.350;17.056;2022-07-24T07:02:35;7.53;;;6.90;;
68432;SDS011;55412;51.350;17.056;2022-07-24T07:05:01;6.95;;;6.10;;
68432;SDS011;55412;51.350;17.056;2022-07-24T07:07:32;7.40;;;6.00;;
68432;SDS011;55412;51.350;17.056;2022-07-24T07:10:00;10.67;;;5.50;;
68432;SDS011;55412;51.350;17.056;2022-07-24T07:12:27;5.75;;;5.10;;
68432;SDS011;55412;51.350;17.056;2022-07-24T07:14:53;5.72;;;4.90;;
68432;SDS011;55412;51.350;17.056;2022-07-24T07:17:19;5.40;;;4.32;;
68432;SDS011;55412;51.350;17.056;2022-07-24T07:19:45;5.85;;;5.00;;
68432;SDS011;55412;51.350;17.056;2022-07-24T07:22:11;6.17;;;4.57;;
68432;SDS011;55412;51.350;17.056;2022-07-24T07:24:38;4.93;;;4.25;;
68432;SDS011;55412;51.350;17.056;2022-07-24T07:27:04;6.75;;;3.70;;
68432;SDS011;55412;51.350;17.056;2022-07-24T07:29:30;5.82;;;3.08;;
68432;SDS011;55412;51.350;17.056;2022-07-24T07:31:56;5.53;;;4.03;;
68432;SDS011;55412;51.350;17.056;2022-07-24T07:34:22;5.23;;;3.00;;
68432;SDS011;55412;51.350;17.056;2022-07-24T07:36:48;5.05;;;3.05;;
68432;SDS011;55412;51.350;17.056;2022-07-24T07:39:14;5.90;;;2.85;;
68432;SDS011;55412;51.350;17.056;2022-07-24T07:41:40;8.77;;;2.85;;
68432;SDS011;55412;51.350;17.056;2022-07-24T07:44:06;4.57;;;2.25;;
68432;SDS011;55412;51.350;17.056;2022-07-24T07:46:32;5.97;;;2.50;;
68432;SDS011;55412;51.350;17.056;2022-07-24T07:48:58;5.88;;;2.10;;
68432;SDS011;55412;51.350;17.056;2022-07-24T07:51:25;4.95;;;2.03;;
68432;SDS011;55412;51.350;17.056;2022-07-24T07:53:51;4.57;;;2.60;;
68432;SDS011;55412;51.350;17.056;2022-07-24T07:56:17;5.15;;;1.90;;
68432;SDS011;55412;51.350;17.056;2022-07-24T07:58:43;3.90;;;2.07;;
68432;SDS011;55412;51.350;17.056;2022-07-24T08:01:09;3.95;;;2.10;;
68432;SDS011;55412;51.350;17.056;2022-07-24T08:03:35;4.63;;;1.73;;
68432;SDS011;55412;51.350;17.056;2022-07-24T08:06:01;8.13;;;1.88;;
68432;SDS011;55412;51.350;17.056;2022-07-24T08:08:29;4.80;;;2.15;;
68432;SDS011;55412;51.350;17.056;2022-07-24T08:10:55;3.90;;;1.70;;
68432;SDS011;55412;51.350;17.056;2022-07-24T08:13:22;5.43;;;1.73;;
68432;SDS011;55412;51.350;17.056;2022-07-24T08:15:48;3.30;;;1.75;;
68432;SDS011;55412;51.350;17.056;2022-07-24T08:18:14;5.72;;;1.67;;
68432;SDS011;55412;51.350;17.056;2022-07-24T08:20:40;5.65;;;1.80;;
68432;SDS011;55412;51.350;17.056;2022-07-24T08:23:09;6.43;;;1.53;;
68432;SDS011;55412;51.350;17.056;2022-07-24T08:25:35;7.43;;;1.83;;
68432;SDS011;55412;51.350;17.056;2022-07-24T08:28:01;7.72;;;1.65;;
68432;SDS011;55412;51.350;17.056;2022-07-24T08:30:27;8.05;;;1.52;;
68432;SDS011;55412;51.350;17.056;2022-07-24T08:32:53;5.93;;;1.50;;
68432;SDS011;55412;51.350;17.056;2022-07-24T08:35:19;3.50;;;1.13;;
68432;SDS011;55412;51.350;17.056;2022-07-24T08:37:46;4.05;;;1.38;;
68432;SDS011;55412;51.350;17.056;2022-07-24T08:40:12;4.15;;;1.30;;
68432;SDS011;55412;51.350;17.056;2022-07-24T08:42:40;4.90;;;1.30;;
68432;SDS011;55412;51.350;17.056;2022-07-24T08:45:06;3.97;;;1.73;;
68432;SDS011;55412;51.350;17.056;2022-07-24T08:47:33;2.90;;;1.00;;
68432;SDS011;55412;51.350;17.056;2022-07-24T08:50:00;3.30;;;1.33;;
68432;SDS011;55412;51.350;17.056;2022-07-24T08:52:29;5.22;;;1.20;;
68432;SDS011;55412;51.350;17.056;2022-07-24T08:54:55;5.85;;;1.55;;
68432;SDS011;55412;51.350;17.056;2022-07-24T08:57:21;6.00;;;1.13;;
68432;SDS011;55412;51.350;17.056;2022-07-24T08:59:47;4.57;;;1.17;;
68432;SDS011;55412;51.350;17.056;2022-07-24T09:02:13;3.60;;;1.00;;
68432;SDS011;55412;51.350;17.056;2022-07-24T09:04:43;6.22;;;1.30;;
68432;SDS011;55412;51.350;17.056;2022-07-24T09:07:14;3.53;;;0.93;;
68432;SDS011;55412;51.350;17.056;2022-07-24T09:09:44;5.05;;;1.25;;
68432;SDS011;55412;51.350;17.056;2022-07-24T09:12:29;4.10;;;1.00;;
68432;SDS011;55412;51.350;17.056;2022-07-24T09:15:01;3.58;;;1.05;;
68432;SDS011;55412;51.350;17.056;2022-07-24T09:17:49;3.92;;;1.27;;
68432;SDS011;55412;51.350;17.056;2022-07-24T09:20:17;3.95;;;1.23;;
68432;SDS011;55412;51.350;17.056;2022-07-24T09:22:44;4.05;;;0.95;;
68432;SDS011;55412;51.350;17.056;2022-07-24T09:25:15;3.03;;;0.93;;
68432;SDS011;55412;51.350;17.056;2022-07-24T09:27:49;4.05;;;0.95;;
68432;SDS011;55412;51.350;17.056;2022-07-24T09:35:54;2.97;;;1.00;;
68432;SDS011;55412;51.350;17.056;2022-07-24T09:38:21;4.93;;;1.20;;
68432;SDS011;55412;51.350;17.056;2022-07-24T09:40:52;3.25;;;0.93;;
68432;SDS011;55412;51.350;17.056;2022-07-24T09:43:22;3.55;;;0.70;;
68432;SDS011;55412;51.350;17.056;2022-07-24T09:45:58;2.75;;;0.60;;
68432;SDS011;55412;51.350;17.056;2022-07-24T09:48:31;3.47;;;0.70;;
68432;SDS011;55412;51.350;17.056;2022-07-24T09:51:16;3.03;;;0.80;;
68432;SDS011;55412;51.350;17.056;2022-07-24T09:53:43;3.58;;;0.60;;
68432;SDS011;55412;51.350;17.056;2022-07-24T09:56:16;2.25;;;0.75;;
68432;SDS011;55412;51.350;17.056;2022-07-24T10:01:20;3.65;;;0.60;;
68432;SDS011;55412;51.350;17.056;2022-07-24T10:03:49;3.67;;;1.07;;
68432;SDS011;55412;51.350;17.056;2022-07-24T10:06:18;4.20;;;0.75;;
68432;SDS011;55412;51.350;17.056;2022-07-24T10:08:50;4.25;;;0.60;;
68432;SDS011;55412;51.350;17.056;2022-07-24T10:11:18;2.30;;;0.60;;
68432;SDS011;55412;51.350;17.056;2022-07-24T10:13:45;3.45;;;0.80;;
68432;SDS011;55412;51.350;17.056;2022-07-24T10:21:28;3.05;;;0.50;;
68432;SDS011;55412;51.350;17.056;2022-07-24T10:24:06;4.13;;;0.85;;
68432;SDS011;55412;51.350;17.056;2022-07-24T10:26:57;10.32;;;1.05;;
68432;SDS011;55412;51.350;17.056;2022-07-24T10:29:30;2.90;;;0.73;;
68432;SDS011;55412;51.350;17.056;2022-07-24T10:32:00;2.92;;;0.73;;
68432;SDS011;55412;51.350;17.056;2022-07-24T10:43:15;3.27;;;0.63;;
68432;SDS011;55412;51.350;17.056;2022-07-24T10:46:10;2.47;;;0.73;;
68432;SDS011;55412;51.350;17.056;2022-07-24T10:48:36;2.42;;;0.50;;
68432;SDS011;55412;51.350;17.056;2022-07-24T10:51:06;2.60;;;0.80;;
68432;SDS011;55412;51.350;17.056;2022-07-24T10:59:05;2.28;;;0.52;;
68432;SDS011;55412;51.350;17.056;2022-07-24T11:01:40;3.10;;;1.00;;
68432;SDS011;55412;51.350;17.056;2022-07-24T11:06:45;3.55;;;0.85;;
68432;SDS011;55412;51.350;17.056;2022-07-24T11:09:14;2.50;;;0.80;;
68432;SDS011;55412;51.350;17.056;2022-07-24T11:14:23;2.38;;;0.60;;
68432;SDS011;55412;51.350;17.056;2022-07-24T11:16:52;3.33;;;0.90;;
68432;SDS011;55412;51.350;17.056;2022-07-24T11:21:45;3.77;;;0.50;;
68432;SDS011;55412;51.350;17.056;2022-07-24T11:26:58;6.30;;;0.95;;
68432;SDS011;55412;51.350;17.056;2022-07-24T11:29:37;2.78;;;0.80;;
68432;SDS011;55412;51.350;17.056;2022-07-24T11:34:47;2.97;;;0.60;;
68432;SDS011;55412;51.350;17.056;2022-07-24T11:37:16;3.10;;;0.63;;
68432;SDS011;55412;51.350;17.056;2022-07-24T11:39:43;2.53;;;0.50;;
68432;SDS011;55412;51.350;17.056;2022-07-24T11:42:11;3.00;;;1.27;;
68432;SDS011;55412;51.350;17.056;2022-07-24T11:44:44;2.33;;;0.73;;
68432;SDS011;55412;51.350;17.056;2022-07-24T11:49:44;3.08;;;0.90;;
68432;SDS011;55412;51.350;17.056;2022-07-24T11:52:16;3.60;;;0.98;;
68432;SDS011;55412;51.350;17.056;2022-07-24T11:54:48;3.95;;;0.77;;
68432;SDS011;55412;51.350;17.056;2022-07-24T11:57:17;2.67;;;0.67;;
68432;SDS011;55412;51.350;17.056;2022-07-24T11:59:49;6.28;;;0.70;;
68432;SDS011;55412;51.350;17.056;2022-07-24T12:02:16;6.05;;;0.77;;
68432;SDS011;55412;51.350;17.056;2022-07-24T12:04:44;3.75;;;0.70;;
68432;SDS011;55412;51.350;17.056;2022-07-24T12:07:17;2.85;;;0.90;;
68432;SDS011;55412;51.350;17.056;2022-07-24T12:09:52;3.87;;;0.60;;
68432;SDS011;55412;51.350;17.056;2022-07-24T12:15:03;3.05;;;0.93;;
68432;SDS011;55412;51.350;17.056;2022-07-24T12:17:57;4.45;;;1.00;;
68432;SDS011;55412;51.350;17.056;2022-07-24T12:20:23;3.30;;;0.60;;
68432;SDS011;55412;51.350;17.056;2022-07-24T12:23:00;2.87;;;0.50;;
68432;SDS011;55412;51.350;17.056;2022-07-24T12:25:31;2.17;;;0.47;;
68432;SDS011;55412;51.350;17.056;2022-07-24T12:28:01;2.58;;;0.60;;
68432;SDS011;55412;51.350;17.056;2022-07-24T12:30:40;2.17;;;0.63;;
68432;SDS011;55412;51.350;17.056;2022-07-24T12:33:19;2.55;;;0.60;;
68432;SDS011;55412;51.350;17.056;2022-07-24T12:36:02;2.50;;;0.60;;
68432;SDS011;55412;51.350;17.056;2022-07-24T12:38:41;2.33;;;0.60;;
68432;SDS011;55412;51.350;17.056;2022-07-24T12:41:22;4.05;;;0.95;;
68432;SDS011;55412;51.350;17.056;2022-07-24T12:44:01;3.47;;;0.60;;
68432;SDS011;55412;51.350;17.056;2022-07-24T12:46:34;3.38;;;0.40;;
68432;SDS011;55412;51.350;17.056;2022-07-24T12:49:15;2.27;;;0.40;;
68432;SDS011;55412;51.350;17.056;2022-07-24T12:54:29;2.85;;;0.65;;
68432;SDS011;55412;51.350;17.056;2022-07-24T12:56:59;3.88;;;0.50;;
68432;SDS011;55412;51.350;17.056;2022-07-24T12:59:35;2.30;;;0.50;;
68432;SDS011;55412;51.350;17.056;2022-07-24T13:02:07;3.63;;;0.50;;
68432;SDS011;55412;51.350;17.056;2022-07-24T13:04:43;2.47;;;0.40;;
68432;SDS011;55412;51.350;17.056;2022-07-24T13:07:16;2.50;;;0.60;;
68432;SDS011;55412;51.350;17.056;2022-07-24T13:09:48;2.70;;;0.73;;
68432;SDS011;55412;51.350;17.056;2022-07-24T13:12:15;3.42;;;0.50;;
68432;SDS011;55412;51.350;17.056;2022-07-24T13:14:41;4.50;;;1.03;;
68432;SDS011;55412;51.350;17.056;2022-07-24T13:17:09;3.20;;;0.68;;
68432;SDS011;55412;51.350;17.056;2022-07-24T13:19:37;3.00;;;0.40;;
68432;SDS011;55412;51.350;17.056;2022-07-24T13:22:14;2.05;;;0.60;;
68432;SDS011;55412;51.350;17.056;2022-07-24T13:24:41;2.10;;;0.55;;
68432;SDS011;55412;51.350;17.056;2022-07-24T13:27:09;3.43;;;0.60;;
68432;SDS011;55412;51.350;17.056;2022-07-24T13:29:38;2.45;;;0.50;;
68432;SDS011;55412;51.350;17.056;2022-07-24T13:32:05;2.30;;;0.70;;
68432;SDS011;55412;51.350;17.056;2022-07-24T13:34:32;3.08;;;0.40;;
68432;SDS011;55412;51.350;17.056;2022-07-24T13:36:58;2.42;;;0.45;;
68432;SDS011;55412;51.350;17.056;2022-07-24T13:39:25;2.57;;;0.60;;
68432;SDS011;55412;51.350;17.056;2022-07-24T13:41:51;3.08;;;0.40;;
68432;SDS011;55412;51.350;17.056;2022-07-24T13:44:17;2.88;;;0.57;;
68432;SDS011;55412;51.350;17.056;2022-07-24T13:46:43;2.28;;;0.50;;
68432;SDS011;55412;51.350;17.056;2022-07-24T13:49:09;4.75;;;0.68;;
68432;SDS011;55412;51.350;17.056;2022-07-24T13:51:36;6.10;;;0.57;;
68432;SDS011;55412;51.350;17.056;2022-07-24T13:54:02;2.75;;;0.63;;
68432;SDS011;55412;51.350;17.056;2022-07-24T13:56:30;3.70;;;0.60;;
68432;SDS011;55412;51.350;17.056;2022-07-24T13:58:57;2.75;;;0.60;;
68432;SDS011;55412;51.350;17.056;2022-07-24T14:01:24;2.83;;;0.50;;
68432;SDS011;55412;51.350;17.056;2022-07-24T14:03:50;2.43;;;0.40;;
68432;SDS011;55412;51.350;17.056;2022-07-24T14:06:16;2.95;;;0.50;;
68432;SDS011;55412;51.350;17.056;2022-07-24T14:08:42;3.95;;;0.95;;
68432;SDS011;55412;51.350;17.056;2022-07-24T14:11:09;4.25;;;0.82;;
68432;SDS011;55412;51.350;17.056;2022-07-24T14:13:35;2.65;;;0.70;;
68432;SDS011;55412;51.350;17.056;2022-07-24T14:16:02;2.57;;;0.70;;
68432;SDS011;55412;51.350;17.056;2022-07-24T14:18:29;3.08;;;0.80;;
68432;SDS011;55412;51.350;17.056;2022-07-24T14:20:55;2.17;;;0.43;;
68432;SDS011;55412;51.350;17.056;2022-07-24T14:23:21;2.55;;;0.70;;
68432;SDS011;55412;51.350;17.056;2022-07-24T14:25:48;2.80;;;0.70;;
68432;SDS011;55412;51.350;17.056;2022-07-24T14:28:14;3.13;;;0.70;;
68432;SDS011;55412;51.350;17.056;2022-07-24T14:30:40;2.40;;;0.50;;
68432;SDS011;55412;51.350;17.056;2022-07-24T14:33:06;2.80;;;0.55;;
68432;SDS011;55412;51.350;17.056;2022-07-24T14:35:33;2.28;;;0.73;;
68432;SDS011;55412;51.350;17.056;2022-07-24T14:38:00;3.08;;;0.90;;
68432;SDS011;55412;51.350;17.056;2022-07-24T14:40:26;3.00;;;0.60;;
68432;SDS011;55412;51.350;17.056;2022-07-24T14:42:52;4.63;;;0.65;;
68432;SDS011;55412;51.350;17.056;2022-07-24T14:45:20;3.50;;;1.08;;
68432;SDS011;55412;51.350;17.056;2022-07-24T14:47:47;3.13;;;0.95;;
68432;SDS011;55412;51.350;17.056;2022-07-24T14:50:13;3.08;;;0.80;;
68432;SDS011;55412;51.350;17.056;2022-07-24T14:52:39;3.87;;;0.40;;
68432;SDS011;55412;51.350;17.056;2022-07-24T14:55:05;3.67;;;0.75;;
68432;SDS011;55412;51.350;17.056;2022-07-24T14:57:33;3.38;;;0.60;;
68432;SDS011;55412;51.350;17.056;2022-07-24T14:59:59;2.25;;;0.68;;
68432;SDS011;55412;51.350;17.056;2022-07-24T15:02:25;2.38;;;0.73;;
68432;SDS011;55412;51.350;17.056;2022-07-24T15:04:51;3.17;;;0.73;;
68432;SDS011;55412;51.350;17.056;2022-07-24T15:07:17;3.15;;;0.60;;
68432;SDS011;55412;51.350;17.056;2022-07-24T15:09:44;4.10;;;0.70;;
68432;SDS011;55412;51.350;17.056;2022-07-24T15:12:10;2.80;;;0.60;;
68432;SDS011;55412;51.350;17.056;2022-07-24T15:14:36;2.97;;;0.98;;
68432;SDS011;55412;51.350;17.056;2022-07-24T15:17:02;2.47;;;0.70;;
68432;SDS011;55412;51.350;17.056;2022-07-24T15:19:28;2.28;;;0.60;;
68432;SDS011;55412;51.350;17.056;2022-07-24T15:21:54;3.00;;;0.80;;
68432;SDS011;55412;51.350;17.056;2022-07-24T15:24:21;2.35;;;0.50;;